Time;durP1;ratioP1;P1;durP2;ratioP2;P2;SDS_P1;SDS_P2;PMS_P1;PMS_P2;Temp;Humidity;BMP_temperature;BMP_pressure;BME280_temperature;BME280_humidity;BME280_pressure;Samples;Min_cycle;Max_cycle;Signal;HPM_P1;HPM_P2
2022/01/18 00:01:57;;;;;;;0.40;0.40;;;-0.10;99.90;;;;;;4994678;28;20431;-65
2022/01/18 00:04:44;;;;;;;0.60;0.60;;;-0.20;99.90;;;;;;4994299;28;20459;-65
2022/01/18 00:07:31;;;;;;;0.40;0.40;;;-0.20;99.90;;;;;;4994127;28;20431;-65
2022/01/18 00:10:18;;;;;;;0.40;0.40;;;-0.10;99.90;;;;;;4992790;28;20471;-66
2022/01/18 00:13:22;;;;;;;0.40;0.40;;;0.00;99.90;;;;;;4994083;28;20439;-66
2022/01/18 00:16:27;;;;;;;0.40;0.40;;;0.10;99.90;;;;;;4992958;28;20742;-66
2022/01/18 00:19:16;;;;;;;0.40;0.40;;;0.00;99.90;;;;;;4994069;28;20458;-65
2022/01/18 00:22:10;;;;;;;0.40;0.40;;;0.00;99.90;;;;;;4994067;28;20427;-66
2022/01/18 00:24:59;;;;;;;0.40;0.40;;;-0.10;99.90;;;;;;4993707;28;20668;-67
2022/01/18 00:27:46;;;;;;;0.40;0.40;;;-0.10;99.90;;;;;;4993752;28;20491;-67
2022/01/18 00:30:54;;;;;;;2.10;1.63;;;-0.10;99.90;;;;;;4993554;28;20431;-68
2022/01/18 00:33:52;;;;;;;0.40;0.40;;;-0.20;99.90;;;;;;4992652;28;20459;-67
2022/01/18 00:36:53;;;;;;;0.50;0.47;;;-0.20;99.90;;;;;;4993856;28;20459;-67
2022/01/18 00:39:41;;;;;;;0.40;0.40;;;-0.20;99.90;;;;;;4993420;28;20430;-66
2022/01/18 00:42:28;;;;;;;0.40;0.40;;;-0.20;99.90;;;;;;4993781;28;20431;-67
2022/01/18 00:45:15;;;;;;;0.40;0.40;;;-0.20;99.90;;;;;;5000827;28;20797;-67
2022/01/18 00:48:03;;;;;;;1.60;1.50;;;-0.20;99.90;;;;;;5004197;28;20472;-67
2022/01/18 00:50:52;;;;;;;5.90;1.87;;;0.00;99.90;;;;;;5002899;28;20424;-67
2022/01/18 00:53:41;;;;;;;0.40;0.40;;;-0.10;99.90;;;;;;5003509;28;20490;-67
2022/01/18 00:56:31;;;;;;;0.40;0.40;;;-0.10;99.90;;;;;;4995314;28;20438;-67
2022/01/18 00:59:19;;;;;;;0.40;0.40;;;-0.10;99.90;;;;;;4993891;28;20428;-67
2022/01/18 01:02:06;;;;;;;0.40;0.40;;;-0.10;99.90;;;;;;4993734;28;20446;-66
2022/01/18 01:04:52;;;;;;;0.40;0.40;;;0.00;99.90;;;;;;4994459;28;20447;-68
2022/01/18 01:07:40;;;;;;;0.43;0.43;;;-0.10;99.90;;;;;;4995286;28;20799;-67
2022/01/18 01:10:28;;;;;;;0.40;0.40;;;-0.20;99.90;;;;;;4994823;28;20675;-67
2022/01/18 01:13:16;;;;;;;0.60;0.60;;;-0.20;99.90;;;;;;4995398;28;20440;-67
2022/01/18 01:16:16;;;;;;;0.50;0.50;;;-0.20;99.90;;;;;;4996222;28;20430;-68
2022/01/18 01:19:23;;;;;;;1.33;1.10;;;-0.20;99.90;;;;;;4994766;28;20459;-67
2022/01/18 01:34:41;;;;;;;0.40;0.40;;;-0.10;99.90;;;;;;4993970;28;20458;-66
2022/01/18 01:43:50;;;;;;;0.47;0.47;;;-0.30;99.90;;;;;;4999578;28;20433;-65
2022/01/18 01:46:38;;;;;;;3.27;3.07;;;-0.30;99.90;;;;;;5001835;28;20518;-65
2022/01/18 01:49:27;;;;;;;0.40;0.40;;;-0.10;99.90;;;;;;5000517;28;20999;-66
2022/01/18 01:52:14;;;;;;;0.40;0.40;;;-0.30;99.90;;;;;;5000779;28;20430;-65
2022/01/18 01:55:01;;;;;;;0.40;0.40;;;-0.20;99.90;;;;;;4996835;28;20828;-65
2022/01/18 01:57:48;;;;;;;0.50;0.50;;;-0.20;99.90;;;;;;4998416;28;20434;-66
2022/01/18 02:00:44;;;;;;;0.40;0.40;;;-0.20;99.90;;;;;;4998537;28;20959;-66
2022/01/18 02:03:31;;;;;;;0.40;0.40;;;-0.40;99.90;;;;;;5003368;28;20851;-66
2022/01/18 02:06:18;;;;;;;0.40;0.40;;;-0.30;99.90;;;;;;5002826;28;20438;-65
2022/01/18 02:09:05;;;;;;;0.40;0.40;;;-0.40;99.90;;;;;;5004964;28;20461;-65
2022/01/18 02:11:55;;;;;;;0.40;0.40;;;-0.30;99.90;;;;;;5003029;28;20427;-66
2022/01/18 02:14:46;;;;;;;0.40;0.40;;;-0.50;99.90;;;;;;5004603;28;20447;-67
2022/01/18 02:23:56;;;;;;;0.40;0.40;;;-0.50;99.90;;;;;;5004740;28;20447;-66
2022/01/18 02:26:43;;;;;;;0.40;0.40;;;-0.50;99.90;;;;;;5003664;28;20455;-66
2022/01/18 02:29:30;;;;;;;0.40;0.40;;;-0.50;99.90;;;;;;4998991;28;20455;-66
2022/01/18 02:32:17;;;;;;;0.40;0.40;;;-0.70;99.90;;;;;;5004669;28;20435;-65
2022/01/18 02:35:05;;;;;;;0.40;0.40;;;-0.70;99.90;;;;;;5004898;28;20467;-66
2022/01/18 02:37:53;;;;;;;0.40;0.40;;;-0.70;99.90;;;;;;5006242;28;20936;-65
2022/01/18 02:40:41;;;;;;;0.40;0.40;;;-0.80;99.90;;;;;;5001037;28;20424;-66
2022/01/18 02:43:50;;;;;;;0.40;0.40;;;-0.70;99.90;;;;;;4999721;28;20446;-67
2022/01/18 02:46:38;;;;;;;0.40;0.40;;;-0.80;99.90;;;;;;4999358;28;20955;-67
2022/01/18 02:49:26;;;;;;;0.40;0.40;;;-0.80;99.90;;;;;;4998730;28;20883;-67
2022/01/18 02:52:13;;;;;;;0.40;0.40;;;-0.80;99.90;;;;;;4998704;28;20431;-67
2022/01/18 02:55:01;;;;;;;0.83;0.83;;;-0.70;99.90;;;;;;4995454;28;20478;-66
2022/01/18 02:57:56;;;;;;;0.40;0.40;;;-0.70;99.90;;;;;;4998347;28;20438;-67
2022/01/18 03:03:10;;;;;;;0.93;0.93;;;-0.70;99.90;;;;;;4999066;28;20415;-67
2022/01/18 03:03:50;;;;;;;0.40;0.40;;;-0.80;99.90;;;;;;5000045;28;20477;-67
2022/01/18 03:06:37;;;;;;;0.40;0.40;;;-0.80;99.90;;;;;;5000535;28;20419;-67
2022/01/18 03:09:24;;;;;;;0.47;0.47;;;-0.80;99.90;;;;;;5000507;28;20463;-67
2022/01/18 03:12:14;;;;;;;0.40;0.40;;;-0.80;99.90;;;;;;5001166;28;20860;-67
2022/01/18 03:15:01;;;;;;;0.40;0.40;;;-0.90;99.90;;;;;;4999713;28;20447;-66
2022/01/18 03:17:48;;;;;;;0.40;0.40;;;-0.90;99.90;;;;;;4999254;28;20928;-66
2022/01/18 03:20:36;;;;;;;0.40;0.40;;;-0.80;99.90;;;;;;4998734;28;20423;-67
2022/01/18 03:23:24;;;;;;;0.40;0.40;;;-0.80;99.90;;;;;;4998389;28;20820;-65
2022/01/18 03:26:15;;;;;;;0.40;0.40;;;-0.80;99.90;;;;;;4997867;28;20501;-66
2022/01/18 03:29:03;;;;;;;4.33;3.90;;;-0.70;99.90;;;;;;4998655;28;20463;-66
2022/01/18 03:31:50;;;;;;;0.40;0.40;;;-0.70;99.90;;;;;;5000851;28;20467;-66
2022/01/18 03:34:36;;;;;;;0.40;0.40;;;-0.80;99.90;;;;;;5000290;28;20470;-66
2022/01/18 03:37:23;;;;;;;1.97;1.90;;;-0.80;99.90;;;;;;4998952;28;20436;-66
2022/01/18 03:40:11;;;;;;;0.40;0.40;;;-0.80;99.90;;;;;;4998233;28;20442;-65
2022/01/18 03:42:59;;;;;;;0.40;0.40;;;-0.80;99.90;;;;;;4999120;28;20439;-66
2022/01/18 03:45:47;;;;;;;0.40;0.40;;;-0.90;99.90;;;;;;5004806;28;20468;-66
2022/01/18 03:48:37;;;;;;;0.40;0.40;;;-0.90;99.90;;;;;;5003846;28;20727;-66
2022/01/18 03:51:24;;;;;;;0.50;0.50;;;-0.90;99.90;;;;;;5002384;28;20521;-67
2022/01/18 03:54:13;;;;;;;0.40;0.40;;;-0.90;99.90;;;;;;5003186;28;20451;-67
2022/01/18 03:57:00;;;;;;;0.40;0.40;;;-0.90;99.90;;;;;;5002213;28;20819;-65
2022/01/18 03:59:47;;;;;;;1.27;1.27;;;-0.90;99.90;;;;;;5000798;28;20434;-66
2022/01/18 04:02:36;;;;;;;0.40;0.40;;;-0.80;99.90;;;;;;5002515;28;20439;-66
2022/01/18 04:05:23;;;;;;;0.40;0.40;;;-0.70;99.90;;;;;;5001318;28;20437;-66
2022/01/18 04:08:10;;;;;;;0.40;0.40;;;-0.60;99.90;;;;;;5001965;28;20442;-65
2022/01/18 04:10:57;;;;;;;0.40;0.40;;;-0.50;99.90;;;;;;5002496;28;20470;-65
2022/01/18 04:13:44;;;;;;;0.40;0.40;;;-0.50;99.90;;;;;;5002496;28;20447;-66
2022/01/18 04:16:41;;;;;;;0.40;0.40;;;-0.50;99.90;;;;;;5000860;28;20423;-66
2022/01/18 04:28:42;;;;;;;0.40;0.40;;;-0.30;99.90;;;;;;5002299;28;20419;-67
2022/01/18 04:31:30;;;;;;;0.40;0.40;;;-0.20;99.90;;;;;;5002427;28;20459;-66
2022/01/18 04:34:17;;;;;;;0.40;0.40;;;-0.30;99.90;;;;;;5004068;28;20543;-65
2022/01/18 04:37:05;;;;;;;0.40;0.40;;;-0.20;99.90;;;;;;5005279;28;20423;-66
2022/01/18 04:39:52;;;;;;;0.40;0.40;;;-0.20;99.90;;;;;;5006923;28;20434;-67
2022/01/18 04:42:58;;;;;;;1.33;1.33;;;-0.20;99.90;;;;;;5007129;28;20438;-66
2022/01/18 04:48:50;;;;;;;0.40;0.40;;;-0.10;99.90;;;;;;5004465;28;20499;-68
2022/01/18 04:51:37;;;;;;;0.40;0.40;;;-0.30;99.90;;;;;;5005134;28;20474;-65
2022/01/18 04:54:29;;;;;;;0.40;0.40;;;-0.30;99.90;;;;;;5006118;28;20454;-67
2022/01/18 05:00:22;;;;;;;0.40;0.40;;;-0.20;99.90;;;;;;5004496;28;20443;-65
2022/01/18 05:03:08;;;;;;;0.40;0.40;;;-0.10;99.90;;;;;;5007194;28;20448;-65
2022/01/18 05:05:59;;;;;;;0.40;0.40;;;0.10;99.90;;;;;;5008593;28;20427;-66
2022/01/18 05:08:46;;;;;;;0.40;0.40;;;0.30;99.90;;;;;;5007753;28;20431;-65
2022/01/18 05:11:39;;;;;;;0.40;0.40;;;0.30;99.90;;;;;;5006668;28;20471;-66
2022/01/18 05:14:30;;;;;;;0.40;0.40;;;0.30;99.90;;;;;;5005627;28;20458;-65
2022/01/18 05:17:36;;;;;;;0.40;0.40;;;0.30;99.90;;;;;;5007595;28;20458;-65
2022/01/18 05:23:33;;;;;;;0.40;0.40;;;0.40;99.90;;;;;;5000570;28;20549;-65
2022/01/18 05:26:20;;;;;;;0.40;0.40;;;0.30;99.90;;;;;;5004434;28;20634;-65
2022/01/18 05:29:08;;;;;;;0.40;0.40;;;0.30;99.90;;;;;;5005983;28;20424;-65
2022/01/18 05:31:55;;;;;;;0.40;0.40;;;0.40;99.90;;;;;;5009331;28;20431;-65
2022/01/18 05:34:44;;;;;;;0.40;0.40;;;;;;;;;;5049039;22;20900;-70
2022/01/18 05:37:31;;;;;;;0.40;0.40;;;0.50;99.90;;;;;;5036534;28;20426;-72
2022/01/18 05:40:19;;;;;;;0.40;0.40;;;0.60;99.90;;;;;;5036823;28;20433;-72
2022/01/18 05:43:07;;;;;;;0.70;0.70;;;0.70;99.90;;;;;;5036709;28;20421;-70
2022/01/18 05:45:55;;;;;;;0.40;0.40;;;0.80;99.90;;;;;;5036741;28;20429;-79
2022/01/18 05:48:42;;;;;;;0.40;0.40;;;;;;;;;;5037246;28;20917;-73
2022/01/18 05:51:30;;;;;;;0.40;0.40;;;0.90;99.90;;;;;;5039161;28;20553;-73
2022/01/18 05:54:17;;;;;;;0.40;0.40;;;0.90;99.90;;;;;;5038094;28;20448;-70
2022/01/18 05:57:04;;;;;;;0.40;0.40;;;1.00;99.90;;;;;;5036319;28;20432;-71
2022/01/18 05:59:53;;;;;;;0.40;0.40;;;1.10;99.90;;;;;;5037225;28;20850;-70
2022/01/18 06:02:47;;;;;;;0.40;0.40;;;1.20;99.90;;;;;;5035898;28;20429;-75
2022/01/18 06:08:39;;;;;;;0.40;0.40;;;1.30;99.90;;;;;;5037704;28;20417;-72
2022/01/18 06:11:26;;;;;;;0.40;0.40;;;1.30;99.90;;;;;;5036850;28;20469;-71
2022/01/18 06:14:13;;;;;;;0.40;0.40;;;1.40;99.90;;;;;;5038461;28;20460;-71
2022/01/18 06:17:00;;;;;;;0.40;0.40;;;1.50;99.90;;;;;;5038478;28;20808;-70
2022/01/18 06:19:48;;;;;;;0.40;0.40;;;1.50;99.90;;;;;;5036365;28;20430;-71
2022/01/18 06:22:35;;;;;;;0.40;0.40;;;1.60;99.90;;;;;;5044601;28;20441;-72
2022/01/18 06:25:22;;;;;;;0.50;0.50;;;1.60;99.90;;;;;;5051176;28;20818;-70
2022/01/18 06:28:09;;;;;;;0.40;0.40;;;1.60;99.90;;;;;;5051836;28;20426;-76
2022/01/18 06:30:56;;;;;;;0.40;0.40;;;1.70;99.90;;;;;;5051394;28;20461;-71
2022/01/18 06:33:43;;;;;;;0.40;0.40;;;1.70;99.90;;;;;;5051507;28;20457;-74
2022/01/18 06:36:31;;;;;;;0.40;0.40;;;1.80;99.90;;;;;;5050448;28;20430;-80
2022/01/18 06:39:18;;;;;;;0.40;0.40;;;1.90;99.90;;;;;;5050319;28;20433;-74
2022/01/18 06:42:06;;;;;;;0.40;0.40;;;2.00;99.90;;;;;;5050557;28;20432;-80
2022/01/18 06:44:53;;;;;;;0.40;0.40;;;2.00;99.90;;;;;;5047881;28;20450;-77
2022/01/18 06:47:40;;;;;;;0.40;0.40;;;2.10;99.90;;;;;;5044038;28;20426;-71
2022/01/18 06:50:27;;;;;;;0.40;0.40;;;2.10;99.90;;;;;;5046315;28;20866;-70
2022/01/18 06:53:15;;;;;;;0.60;0.60;;;2.20;99.90;;;;;;5046670;28;20426;-72
2022/01/18 06:56:02;;;;;;;0.40;0.40;;;2.20;99.90;;;;;;5049029;28;20425;-70
2022/01/18 06:58:50;;;;;;;0.40;0.40;;;2.20;99.90;;;;;;5050397;28;20480;-70
2022/01/18 07:01:37;;;;;;;0.50;0.50;;;2.20;99.90;;;;;;5038188;28;20437;-71
2022/01/18 07:04:24;;;;;;;0.40;0.40;;;2.30;99.90;;;;;;5036140;28;20445;-72
2022/01/18 07:07:11;;;;;;;0.57;0.57;;;2.30;99.90;;;;;;5036784;28;20948;-71
2022/01/18 07:09:59;;;;;;;0.40;0.40;;;2.30;99.90;;;;;;5036127;28;20429;-71
2022/01/18 07:12:46;;;;;;;22.07;2.30;;;2.30;99.90;;;;;;5037554;28;20941;-71
2022/01/18 07:15:33;;;;;;;0.40;0.40;;;2.30;99.90;;;;;;5036298;28;20941;-72
2022/01/18 07:18:20;;;;;;;0.40;0.40;;;2.40;99.90;;;;;;5041702;28;20428;-69
2022/01/18 07:21:09;;;;;;;0.50;0.50;;;2.40;99.90;;;;;;5053406;28;20446;-70
2022/01/18 07:24:03;;;;;;;0.40;0.40;;;2.40;99.90;;;;;;5053632;28;20454;-69
2022/01/18 07:26:52;;;;;;;2.53;0.97;;;2.50;99.90;;;;;;5052965;28;20467;-70
2022/01/18 07:29:41;;;;;;;0.40;0.40;;;2.60;99.90;;;;;;5044623;28;20425;-71
2022/01/18 07:32:28;;;;;;;0.40;0.40;;;2.60;99.90;;;;;;5036133;28;20467;-71
2022/01/18 07:35:15;;;;;;;0.40;0.40;;;2.60;99.90;;;;;;5034749;28;20471;-73
2022/01/18 07:38:03;;;;;;;0.40;0.40;;;2.60;99.90;;;;;;5036040;28;20429;-73
2022/01/18 07:40:53;;;;;;;0.40;0.40;;;2.60;99.90;;;;;;5039107;28;20429;-71
2022/01/18 07:43:41;;;;;;;0.40;0.40;;;2.70;99.90;;;;;;5041315;28;20452;-71
2022/01/18 07:46:28;;;;;;;0.40;0.40;;;2.70;99.90;;;;;;5035207;28;20428;-70
2022/01/18 07:49:15;;;;;;;0.40;0.40;;;2.80;99.90;;;;;;5035893;28;20432;-70
2022/01/18 07:52:03;;;;;;;0.40;0.40;;;2.80;99.90;;;;;;5034827;28;20467;-71
2022/01/18 07:54:50;;;;;;;0.40;0.40;;;2.90;99.90;;;;;;5031997;28;20468;-71
2022/01/18 07:57:41;;;;;;;0.40;0.40;;;2.90;99.90;;;;;;5016133;28;20499;-70
2022/01/18 08:00:30;;;;;;;0.40;0.40;;;3.00;99.90;;;;;;5031813;28;20799;-71
2022/01/18 08:03:17;;;;;;;0.40;0.40;;;3.00;99.90;;;;;;5023315;28;20448;-70
2022/01/18 08:06:04;;;;;;;0.40;0.40;;;3.00;99.90;;;;;;5010545;28;20481;-71
2022/01/18 08:08:51;;;;;;;0.40;0.40;;;3.10;99.90;;;;;;5021679;28;20421;-71
2022/01/18 08:11:38;;;;;;;0.40;0.40;;;3.10;99.90;;;;;;5033357;28;20487;-71
2022/01/18 08:14:29;;;;;;;0.40;0.40;;;3.10;99.90;;;;;;5018668;28;20442;-71
2022/01/18 08:17:17;;;;;;;0.40;0.40;;;3.10;99.90;;;;;;5034457;28;21024;-70
2022/01/18 08:20:05;;;;;;;0.40;0.40;;;3.20;99.90;;;;;;5034079;28;20526;-71
2022/01/18 08:22:52;;;;;;;0.40;0.40;;;3.20;99.90;;;;;;5034665;28;20847;-70
2022/01/18 08:25:39;;;;;;;0.40;0.40;;;3.30;99.90;;;;;;5026960;28;20812;-71
2022/01/18 08:28:26;;;;;;;0.40;0.40;;;3.40;99.90;;;;;;5041479;28;20445;-71
2022/01/18 08:31:13;;;;;;;1.80;0.97;;;3.40;99.90;;;;;;5034067;28;20464;-70
2022/01/18 08:34:01;;;;;;;0.40;0.40;;;3.60;99.90;;;;;;5034470;28;20460;-70
2022/01/18 08:36:50;;;;;;;0.40;0.40;;;3.60;99.90;;;;;;5034954;28;20417;-70
2022/01/18 08:39:37;;;;;;;0.40;0.40;;;3.70;99.90;;;;;;5037029;28;20436;-70
2022/01/18 08:42:24;;;;;;;0.40;0.40;;;3.80;99.90;;;;;;5032607;28;20929;-71
2022/01/18 08:45:11;;;;;;;0.40;0.40;;;3.80;99.90;;;;;;5031253;28;20452;-71
2022/01/18 08:47:58;;;;;;;0.40;0.40;;;3.80;99.90;;;;;;5032965;28;20432;-71
2022/01/18 08:50:46;;;;;;;0.70;0.70;;;3.90;99.90;;;;;;5033336;28;20460;-71
2022/01/18 08:53:35;;;;;;;0.40;0.40;;;3.90;99.90;;;;;;5031328;28;20445;-71
2022/01/18 08:56:22;;;;;;;0.40;0.40;;;3.90;99.90;;;;;;5033179;28;20444;-71
2022/01/18 08:59:09;;;;;;;0.40;0.40;;;4.00;99.90;;;;;;5038903;28;20437;-70
2022/01/18 09:01:57;;;;;;;0.40;0.40;;;4.00;99.90;;;;;;5042244;28;20458;-71
2022/01/18 09:04:45;;;;;;;0.40;0.40;;;4.10;99.90;;;;;;5033023;28;20445;-72
2022/01/18 09:07:36;;;;;;;0.40;0.40;;;4.20;99.90;;;;;;5040024;28;20438;-70
2022/01/18 09:10:25;;;;;;;0.40;0.40;;;4.40;99.90;;;;;;5036354;28;20461;-73
2022/01/18 09:13:12;;;;;;;1.00;1.00;;;4.40;99.90;;;;;;5031710;28;20421;-71
2022/01/18 09:15:59;;;;;;;0.40;0.40;;;4.40;99.90;;;;;;5045830;28;20427;-71
2022/01/18 09:18:46;;;;;;;0.40;0.40;;;4.50;99.90;;;;;;5034021;28;20816;-71
2022/01/18 09:21:34;;;;;;;0.40;0.40;;;4.60;99.90;;;;;;5037405;28;20425;-69
2022/01/18 09:24:22;;;;;;;0.53;0.53;;;4.60;99.90;;;;;;5024900;28;20452;-71
2022/01/18 09:27:09;;;;;;;0.83;0.83;;;4.60;99.90;;;;;;5017491;28;20968;-72
2022/01/18 09:29:57;;;;;;;0.40;0.40;;;4.60;99.90;;;;;;5017657;28;20797;-69
2022/01/18 09:32:45;;;;;;;0.40;0.40;;;4.60;99.90;;;;;;5017195;28;20461;-71
2022/01/18 09:35:32;;;;;;;0.40;0.40;;;4.60;99.90;;;;;;5031653;28;20429;-71
2022/01/18 09:38:19;;;;;;;0.40;0.40;;;4.60;99.90;;;;;;5036367;28;20424;-71
2022/01/18 09:41:11;;;;;;;0.40;0.40;;;4.60;99.90;;;;;;5036638;28;20416;-71
2022/01/18 09:43:59;;;;;;;0.40;0.40;;;4.60;99.90;;;;;;5034995;28;20973;-70
2022/01/18 09:46:48;;;;;;;0.50;0.50;;;4.60;99.90;;;;;;5037193;28;20959;-71
2022/01/18 09:49:35;;;;;;;0.53;0.53;;;4.70;99.90;;;;;;5036582;28;20417;-71
2022/01/18 09:52:22;;;;;;;0.40;0.40;;;4.80;99.90;;;;;;5031365;28;20479;-71
2022/01/18 09:55:10;;;;;;;0.40;0.40;;;5.00;99.90;;;;;;5035511;28;20445;-71
2022/01/18 09:58:00;;;;;;;0.40;0.40;;;5.20;99.90;;;;;;5044513;28;20415;-71
2022/01/18 10:00:49;;;;;;;0.40;0.40;;;5.00;99.90;;;;;;5037211;28;20413;-71
2022/01/18 10:03:38;;;;;;;0.40;0.40;;;5.00;99.90;;;;;;5035908;28;20445;-71
2022/01/18 10:06:26;;;;;;;0.40;0.40;;;4.90;99.90;;;;;;5035498;28;20432;-69
2022/01/18 10:09:14;;;;;;;0.40;0.40;;;4.90;99.90;;;;;;5034406;28;20417;-71
2022/01/18 10:12:05;;;;;;;0.40;0.40;;;4.90;99.90;;;;;;5035067;28;20480;-71
2022/01/18 10:14:56;;;;;;;0.40;0.40;;;4.90;99.90;;;;;;5036396;28;20527;-71
2022/01/18 10:17:43;;;;;;;0.50;0.50;;;4.90;99.90;;;;;;5034644;28;20808;-71
2022/01/18 10:20:30;;;;;;;0.40;0.40;;;5.00;99.90;;;;;;5040290;28;20436;-71
2022/01/18 10:23:21;;;;;;;0.40;0.40;;;5.20;99.90;;;;;;5039798;28;20426;-71
2022/01/18 10:26:20;;;;;;;4.70;1.33;;;5.50;99.90;;;;;;5038142;28;20441;-70
2022/01/18 10:29:08;;;;;;;0.40;0.40;;;5.60;99.90;;;;;;5050006;28;20435;-70
2022/01/18 10:32:00;;;;;;;0.40;0.40;;;5.50;99.90;;;;;;5050771;28;20449;-70
2022/01/18 10:37:59;;;;;;;0.40;0.40;;;5.70;99.90;;;;;;5026357;28;20455;-74
2022/01/18 10:40:45;;;;;;;0.50;0.50;;;5.80;99.90;;;;;;5036020;28;20459;-71
2022/01/18 10:43:33;;;;;;;0.40;0.40;;;5.70;99.90;;;;;;5035089;28;20442;-71
2022/01/18 10:46:20;;;;;;;0.40;0.40;;;5.80;99.90;;;;;;5034474;28;20453;-71
2022/01/18 10:49:09;;;;;;;0.50;0.50;;;5.80;99.90;;;;;;5034450;28;20425;-71
2022/01/18 10:51:58;;;;;;;0.40;0.40;;;5.80;99.90;;;;;;5034063;28;20828;-70
2022/01/18 10:54:47;;;;;;;0.50;0.50;;;6.00;99.90;;;;;;5028687;28;20956;-70
2022/01/18 10:57:38;;;;;;;0.80;0.63;;;6.00;99.90;;;;;;5035675;28;20820;-70
2022/01/18 11:00:29;;;;;;;1.23;0.90;;;5.90;99.90;;;;;;5028283;28;20432;-71
2022/01/18 11:03:17;;;;;;;0.40;0.40;;;5.90;99.90;;;;;;5067850;28;20474;-69
2022/01/18 11:06:16;;;;;;;1.67;0.57;;;6.00;99.90;;;;;;5017445;28;20414;-70
2022/01/18 11:09:12;;;;;;;0.40;0.40;;;6.10;99.90;;;;;;5015351;28;20418;-71
2022/01/18 11:12:00;;;;;;;0.40;0.40;;;6.10;99.90;;;;;;5035188;28;20567;-70
2022/01/18 11:14:59;;;;;;;0.40;0.40;;;6.20;99.90;;;;;;5035694;28;20449;-71
2022/01/18 11:17:56;;;;;;;0.40;0.40;;;6.30;99.90;;;;;;5033096;28;20437;-71
2022/01/18 11:20:46;;;;;;;0.40;0.40;;;6.30;99.90;;;;;;5035252;28;20520;-71
2022/01/18 11:23:35;;;;;;;0.40;0.40;;;6.20;99.90;;;;;;5046266;28;20949;-71
2022/01/18 11:26:24;;;;;;;1.13;1.03;;;6.20;99.90;;;;;;5015470;28;20402;-70
2022/01/18 11:29:12;;;;;;;0.40;0.40;;;6.70;99.90;;;;;;5015597;28;20520;-70
2022/01/18 11:31:59;;;;;;;0.50;0.50;;;6.30;99.90;;;;;;5015918;28;20627;-72
2022/01/18 11:34:55;;;;;;;0.40;0.40;;;6.20;99.90;;;;;;5013820;28;20461;-71
2022/01/18 11:37:50;;;;;;;0.40;0.40;;;6.20;99.90;;;;;;5019362;28;20429;-70
2022/01/18 11:40:48;;;;;;;0.50;0.50;;;6.30;99.90;;;;;;5034539;28;20425;-69
2022/01/18 11:43:37;;;;;;;0.50;0.50;;;6.30;99.90;;;;;;5032907;28;20461;-71
2022/01/18 11:46:26;;;;;;;0.63;0.63;;;6.10;99.90;;;;;;5035316;28;20791;-70
2022/01/18 11:49:18;;;;;;;0.40;0.40;;;6.10;99.90;;;;;;5033083;28;20425;-70
2022/01/18 11:52:09;;;;;;;0.40;0.40;;;6.00;99.90;;;;;;5029029;28;20623;-70
2022/01/18 11:54:57;;;;;;;0.40;0.40;;;6.10;99.90;;;;;;5027981;28;20984;-70
2022/01/18 11:57:48;;;;;;;0.77;0.70;;;6.10;99.90;;;;;;5032552;28;20503;-70
2022/01/18 12:00:49;;;;;;;0.40;0.40;;;6.20;99.90;;;;;;5033367;28;20433;-71
2022/01/18 12:03:44;;;;;;;0.40;0.40;;;6.30;99.90;;;;;;5034245;28;20492;-71
2022/01/18 12:06:44;;;;;;;0.50;0.50;;;6.40;99.90;;;;;;5033000;28;20430;-71
2022/01/18 12:09:38;;;;;;;0.40;0.40;;;6.50;99.90;;;;;;5032824;28;20426;-70
2022/01/18 12:12:54;;;;;;;43.23;10.60;;;6.60;99.90;;;;;;5033099;28;20457;-71
2022/01/18 12:15:49;;;;;;;0.40;0.40;;;6.50;99.90;;;;;;5034940;28;20417;-71
2022/01/18 12:18:53;;;;;;;0.40;0.40;;;6.50;99.90;;;;;;5032772;28;20422;-73
2022/01/18 12:21:45;;;;;;;0.40;0.40;;;6.50;99.90;;;;;;5033025;28;20436;-71
2022/01/18 12:24:32;;;;;;;0.40;0.40;;;6.60;99.90;;;;;;5033321;28;20530;-71
2022/01/18 12:27:31;;;;;;;0.40;0.40;;;6.70;99.90;;;;;;5033240;28;20421;-71
2022/01/18 12:30:39;;;;;;;0.40;0.40;;;6.70;99.90;;;;;;5032968;28;20452;-72
2022/01/18 12:33:26;;;;;;;0.40;0.40;;;6.70;99.90;;;;;;5033458;28;20850;-71
2022/01/18 12:36:29;;;;;;;0.40;0.40;;;6.70;99.90;;;;;;5033132;28;20424;-71
2022/01/18 12:39:16;;;;;;;0.40;0.40;;;6.70;99.90;;;;;;5032191;28;20432;-71
2022/01/18 12:42:20;;;;;;;1.00;0.80;;;6.60;99.90;;;;;;5031351;28;20826;-71
2022/01/18 12:45:08;;;;;;;0.40;0.40;;;6.50;99.90;;;;;;5045061;28;20458;-72
2022/01/18 12:48:00;;;;;;;0.40;0.40;;;6.40;99.90;;;;;;5021169;28;20918;-72
2022/01/18 12:50:49;;;;;;;0.40;0.40;;;6.30;99.90;;;;;;5040804;28;20500;-73
2022/01/18 12:53:39;;;;;;;0.40;0.40;;;6.40;99.90;;;;;;5052717;28;20461;-72
2022/01/18 12:56:26;;;;;;;0.40;0.40;;;6.40;99.90;;;;;;5053791;28;20428;-71
2022/01/18 12:59:13;;;;;;;0.70;0.70;;;6.40;99.90;;;;;;5053490;28;20425;-71
2022/01/18 13:02:00;;;;;;;3.30;1.13;;;6.50;99.90;;;;;;5053853;28;20405;-72
2022/01/18 13:04:57;;;;;;;0.40;0.40;;;6.40;99.90;;;;;;5052549;28;20475;-71
2022/01/18 13:07:50;;;;;;;0.40;0.40;;;6.30;99.90;;;;;;5054998;28;20429;-71
2022/01/18 13:10:39;;;;;;;0.40;0.40;;;6.30;99.90;;;;;;5054100;28;20417;-71
2022/01/18 13:13:32;;;;;;;0.40;0.40;;;6.40;99.90;;;;;;5055880;28;20485;-73
2022/01/18 13:25:47;;;;;;;0.50;0.50;;;6.30;99.90;;;;;;5054139;28;20504;-73
2022/01/18 13:28:35;;;;;;;0.40;0.40;;;6.30;99.90;;;;;;5053316;28;20452;-73
2022/01/18 13:31:24;;;;;;;0.40;0.40;;;6.20;99.90;;;;;;5051990;28;20491;-70
2022/01/18 13:34:14;;;;;;;0.40;0.40;;;6.20;99.90;;;;;;5043757;28;20469;-71
2022/01/18 13:37:04;;;;;;;0.40;0.40;;;6.20;99.90;;;;;;5052800;28;20422;-71
2022/01/18 13:39:54;;;;;;;0.40;0.40;;;6.20;99.90;;;;;;5036318;28;20469;-72
2022/01/18 13:42:44;;;;;;;0.40;0.40;;;6.20;99.90;;;;;;5035720;28;20410;-72
2022/01/18 13:45:31;;;;;;;0.40;0.40;;;6.20;99.90;;;;;;5049885;28;20420;-71
2022/01/18 13:48:18;;;;;;;0.40;0.40;;;6.20;99.90;;;;;;5054473;28;20422;-73
2022/01/18 13:51:14;;;;;;;0.40;0.40;;;6.20;99.90;;;;;;5054797;28;20423;-71
2022/01/18 13:54:04;;;;;;;0.40;0.40;;;6.10;99.90;;;;;;5047211;28;20543;-71
2022/01/18 13:56:53;;;;;;;0.40;0.40;;;6.10;99.90;;;;;;5050560;28;20516;-72
2022/01/18 13:59:40;;;;;;;0.40;0.40;;;6.00;99.90;;;;;;5057179;28;20448;-70
2022/01/18 14:02:27;;;;;;;0.40;0.40;;;6.00;99.90;;;;;;5062533;28;20448;-71
2022/01/18 14:05:14;;;;;;;0.40;0.40;;;5.90;99.90;;;;;;5055507;28;20464;-70
2022/01/18 14:08:03;;;;;;;0.40;0.40;;;5.90;99.90;;;;;;5055267;28;20504;-70
2022/01/18 14:11:00;;;;;;;0.40;0.40;;;5.90;99.90;;;;;;5052705;28;20417;-71
2022/01/18 14:13:50;;;;;;;0.40;0.40;;;5.90;99.90;;;;;;5056059;28;20475;-72
2022/01/18 14:16:40;;;;;;;0.50;0.50;;;5.90;99.90;;;;;;5056169;28;20485;-72
2022/01/18 14:19:29;;;;;;;0.40;0.40;;;5.90;99.90;;;;;;5053822;28;20435;-71
2022/01/18 14:22:18;;;;;;;0.40;0.40;;;5.80;99.90;;;;;;5047233;28;20414;-72
2022/01/18 14:25:07;;;;;;;0.40;0.40;;;5.80;99.90;;;;;;5053361;28;20441;-71
2022/01/18 14:27:54;;;;;;;0.40;0.40;;;5.80;99.90;;;;;;5048205;28;20436;-71
2022/01/18 14:30:43;;;;;;;0.50;0.50;;;5.90;99.90;;;;;;5051927;28;20424;-71
2022/01/18 14:33:31;;;;;;;0.40;0.40;;;5.90;99.90;;;;;;5053380;28;20473;-72
2022/01/18 14:36:17;;;;;;;0.50;0.50;;;5.90;99.90;;;;;;5033397;28;20526;-71
2022/01/18 14:39:07;;;;;;;0.40;0.40;;;5.90;99.90;;;;;;5036645;28;20421;-71
2022/01/18 14:42:01;;;;;;;0.60;0.60;;;5.90;99.90;;;;;;5034325;28;20413;-71
2022/01/18 14:45:00;;;;;;;0.40;0.40;;;5.90;99.90;;;;;;5037477;28;20445;-70
2022/01/18 14:47:49;;;;;;;0.40;0.40;;;5.80;99.90;;;;;;5034367;28;20437;-70
2022/01/18 14:50:38;;;;;;;0.40;0.40;;;5.90;99.90;;;;;;5035442;28;20452;-71
2022/01/18 14:53:25;;;;;;;0.40;0.40;;;5.90;99.90;;;;;;5042548;28;20475;-70
2022/01/18 14:56:12;;;;;;;0.40;0.40;;;5.90;99.90;;;;;;5040780;28;20483;-70
2022/01/18 14:58:59;;;;;;;0.40;0.40;;;5.90;99.90;;;;;;5047159;28;20420;-70
2022/01/18 15:01:49;;;;;;;0.40;0.40;;;5.90;99.90;;;;;;5042275;28;20460;-71
2022/01/18 15:04:37;;;;;;;0.40;0.40;;;5.80;99.90;;;;;;5033903;28;20437;-71
2022/01/18 15:07:24;;;;;;;0.40;0.40;;;5.90;99.90;;;;;;5033442;28;20799;-71
2022/01/18 15:10:13;;;;;;;0.40;0.40;;;5.80;99.90;;;;;;5032920;28;20414;-71
2022/01/18 15:13:00;;;;;;;0.40;0.40;;;5.90;99.90;;;;;;5038846;28;20468;-71
2022/01/18 15:15:47;;;;;;;0.40;0.40;;;5.90;99.90;;;;;;5032022;28;20444;-70
2022/01/18 15:18:34;;;;;;;0.40;0.40;;;5.90;99.90;;;;;;5050796;28;20429;-73
2022/01/18 15:21:24;;;;;;;0.40;0.40;;;5.80;99.90;;;;;;5043121;28;20429;-71
2022/01/18 15:24:11;;;;;;;0.40;0.40;;;5.80;99.90;;;;;;5039180;28;20441;-70
2022/01/18 15:26:59;;;;;;;0.40;0.40;;;5.80;99.90;;;;;;5038415;28;20425;-71
2022/01/18 15:29:47;;;;;;;0.40;0.40;;;5.80;99.90;;;;;;5038655;28;20513;-71
2022/01/18 15:32:34;;;;;;;0.40;0.40;;;5.80;99.90;;;;;;5040250;28;20519;-70
2022/01/18 15:35:21;;;;;;;0.40;0.40;;;5.80;99.90;;;;;;5041151;28;20477;-71
2022/01/18 15:38:09;;;;;;;0.40;0.40;;;5.80;99.90;;;;;;5040485;28;20448;-70
2022/01/18 15:40:58;;;;;;;0.40;0.40;;;5.80;99.90;;;;;;5042785;28;20849;-70
2022/01/18 15:43:45;;;;;;;0.40;0.40;;;5.80;99.90;;;;;;5026936;28;20452;-71
2022/01/18 15:46:32;;;;;;;0.40;0.40;;;5.80;99.90;;;;;;5043798;28;20429;-71
2022/01/18 15:49:20;;;;;;;0.40;0.40;;;5.80;99.90;;;;;;5042897;28;20452;-70
2022/01/18 15:52:08;;;;;;;0.40;0.40;;;5.80;99.90;;;;;;5045533;28;20413;-70